This is the latest recevied weather packets stored in our database for station/object KD8OZS. If no packets are shown the sender has not sent any weather packets the latest 10 day(s).
| Time | Temp. | Humidity | Pressure | Rain* | Wind** | Luminosity | Snow |
|---|---|---|---|---|---|---|---|
| 1787602821 | 23.89° C | 61% | 1009.9 hPa | 0 mm | - | 532 W/m² | - |
| 1787602520 | 23.89° C | 62% | 1010 hPa | 0 mm | - | 581 W/m² | - |
| 1787602216 | 23.33° C | 62% | 1009.8 hPa | 0 mm | - | 603 W/m² | - |
| 1787601914 | 23.33° C | 61% | 1009.8 hPa | 0 mm | - | 352 W/m² | - |
| 1787601610 | 23.89° C | 63% | 1009.9 hPa | 0 mm | - | 649 W/m² | - |
| 1787601305 | 23.33° C | 61% | 1009.8 hPa | 0 mm | - | 617 W/m² | - |
| 1787601004 | 22.78° C | 63% | 1009.9 hPa | 0 mm | - | 625 W/m² | - |
| 1787600699 | 23.89° C | 62% | 1009.9 hPa | 0 mm | - | 647 W/m² | - |
| 1787600394 | 23.33° C | 66% | 1009.9 hPa | 0 mm | - | 638 W/m² | - |
| 1787600090 | 22.78° C | 63% | 1009.8 hPa | 0 mm | - | 213 W/m² | - |
| 1787599786 | 22.78° C | 63% | 1010.1 hPa | 0 mm | - | 201 W/m² | - |
| 1787599483 | 22.78° C | 66% | 1010.1 hPa | 0 mm | - | 133 W/m² | - |
| 1787599178 | 23.33° C | 61% | 1009.8 hPa | 0 mm | - | 133 W/m² | - |
| 1787598874 | 22.78° C | 64% | 1010.2 hPa | 0 mm | - | 685 W/m² | - |
| 1787598570 | 22.22° C | 65% | 1010.1 hPa | 0 mm | - | 711 W/m² | - |
| 1787598264 | 22.22° C | 66% | 1010 hPa | 0 mm | - | 301 W/m² | - |
| 1787597960 | 22.78° C | 64% | 1010 hPa | 0 mm | - | 189 W/m² | - |
| 1787597654 | 22.22° C | 65% | 1010 hPa | 0 mm | - | 714 W/m² | - |
| 1787597353 | 22.78° C | 63% | 1009.9 hPa | 0 mm | - | 177 W/m² | - |
| 1787597048 | 22.78° C | 64% | 1010 hPa | 0 mm | - | 582 W/m² | - |
| 1787596745 | 22.78° C | 65% | 1010 hPa | 0 mm | - | 650 W/m² | - |
| 1787596440 | 22.22° C | 65% | 1010 hPa | 0 mm | - | 664 W/m² | - |
| 1787596135 | 22.22° C | 62% | 1009.9 hPa | 0 mm | - | 755 W/m² | - |
| 1787595831 | 22.78° C | 67% | 1009.9 hPa | 0 mm | - | 857 W/m² | - |
| 1787595526 | 22.22° C | 67% | 1010 hPa | 0 mm | - | 769 W/m² | - |
* Rain latest hour (hover to see other rain measurements)
** Current wind speed in m/s (hover to see current wind gust speed)